• Join FlightAware (Why Join?)
  • Login
  • US Flag 
05:50PM EDT


 

Airport Tracker/Info


-or-


 

Live Flight TrackerFlight Track Log ✈ N373LD ✈ 18-Nov-2013 ✈ KMLS - KCOD

Flight Track Log - Related Links

Times and Time Zones

All times are in EST time to prevent confusion due to time zone crossing. See the N373LD flight status page for this flight to view local times or setup timezone preferences in your user account.

Time Position Orientation Groundspeed Altitude Reporting Facility
EST Latitude Longitude Course Direction KTS MPH feet Rate Location/Type
02:10PM 46.3183 -106.0703 233° Southwest 136 157 10,600  Level Salt Lake Center
02:11PM 46.2911 -106.1139 228° Southwest 139 160 11,700 1,200 Climbing Salt Lake Center
02:12PM 46.2642 -106.1592 229° Southwest 145 167 13,200 1,320 Climbing Salt Lake Center
02:13PM 46.2389 -106.2033 230° Southwest 144 166 14,500 1,200 Climbing Salt Lake Center
02:14PM 46.1991 -106.2819 232° Southwest  Level Estimated
02:14PM 46.2122 -106.2500 230° Southwest 147 169 15,800  Level Salt Lake Center
02:15PM 46.1808 -106.3050 231° Southwest 148 170 17,300 1,320 Climbing Salt Lake Center
02:16PM 46.1539 -106.3511 230° Southwest 149 171 18,600 1,080 Climbing Salt Lake Center
02:17PM 46.1264 -106.3978 230° Southwest 151 174 19,600 660 Climbing Salt Lake Center
02:18PM 46.0964 -106.4503 231° Southwest 158 182 20,000 180 Climbing Salt Lake Center
02:19PM 46.0600 -106.5108 229° Southwest 179 206 20,000  Level Salt Lake Center
02:20PM 46.0217 -106.5772 230° Southwest 199 229 20,000  Level Salt Lake Center
02:21PM 45.9747 -106.6558 229° Southwest 210 242 20,000  Level Salt Lake Center
02:22PM 45.9358 -106.7217 230° Southwest 215 247 20,000  Level Salt Lake Center
02:23PM 45.8972 -106.7869 230° Southwest 215 247 20,000  Level Salt Lake Center
02:25PM 45.8586 -106.8528 230° Southwest 216 249 20,000  Level Salt Lake Center
02:26PM 45.8203 -106.9181 230° Southwest 215 247 20,000  Level Salt Lake Center
02:27PM 45.7811 -106.9836 229° Southwest 216 249 20,000  Level Salt Lake Center
02:28PM 45.7344 -107.0622 230° Southwest 216 249 20,000  Level Salt Lake Center
02:29PM 45.6961 -107.1272 230° Southwest 216 249 20,000  Level Salt Lake Center
02:30PM 45.6569 -107.1972 231° Southwest 223 257 20,000  Level Salt Lake Center
02:31PM 45.6178 -107.2617 229° Southwest 217 250 20,000  Level Salt Lake Center
02:32PM 45.5786 -107.3253 229° Southwest 215 247 20,000  Level Salt Lake Center
02:33PM 45.5394 -107.3900 229° Southwest 215 247 20,000  Level Salt Lake Center
02:34PM 45.4939 -107.4675 230° Southwest 214 246 20,000  Level Salt Lake Center
02:35PM 45.4556 -107.5289 228° Southwest 209 241 20,000  Level Salt Lake Center
02:36PM 45.4175 -107.5911 229° Southwest 209 241 20,000  Level Salt Lake Center
02:37PM 45.3769 -107.6569 229° Southwest 206 237 20,000  Level Salt Lake Center
02:38PM 45.3394 -107.7194 230° Southwest 210 242 20,000  Level Salt Lake Center
02:39PM 45.2975 -107.7872 229° Southwest 213 245 20,000  Level Salt Lake Center
02:40PM 45.2594 -107.8483 229° Southwest 211 243 20,000  Level Salt Lake Center
02:41PM 45.2181 -107.9164 229° Southwest 211 243 20,000  Level Salt Lake Center
02:42PM 45.1792 -107.9794 229° Southwest 216 249 20,000  Level Salt Lake Center
02:43PM 45.1372 -108.0467 229° Southwest 213 245 20,000  Level Salt Lake Center
02:44PM 45.0981 -108.1100 229° Southwest 216 249 20,000  Level Salt Lake Center
02:45PM 45.0658 -108.1669 231° Southwest 207 238 20,000  Level Salt Lake Center
02:46PM 45.0194 -108.2419 229° Southwest 210 242 20,000  Level Salt Lake Center
02:47PM 44.9783 -108.3072 228° Southwest 220 253 20,000  Level Salt Lake Center
02:48PM 44.9394 -108.3692 228° Southwest 217 250 20,000  Level Salt Lake Center
02:49PM 44.9022 -108.4281 228° Southwest 206 237 20,000  Level Salt Lake Center
02:50PM 44.8639 -108.4886 228° Southwest 207 238 20,000  Level Salt Lake Center
02:51PM 44.8169 -108.5633 228° Southwest 212 244 20,000 -120 Level Salt Lake Center
02:52PM 44.7778 -108.6250 228° Southwest 212 244 19,800 -840 Descending Salt Lake Center
02:53PM 44.7381 -108.6875 228° Southwest 214 246 18,300 -1,500 Descending Salt Lake Center
02:55PM 44.6791 -108.7407 231° Southwest  Level FlightAware Approximate
03:02PM 44.5167 -109.0167 227° Southwest  Level FlightAware Approximate
03:03PM 44.5202 -109.0238 227° Southwest  Level Estimated
03:04PM 44.5167 -109.0167 227° Southwest  Level FlightAware Approximate
03:05PM 44.5202 -109.0238 227° Southwest  Level Estimated
03:06PM 44.5167 -109.0167 227° Southwest  Level FlightAware Approximate
03:07PM 44.5202 -109.0238 227° Southwest  Level Estimated
03:08PM 44.5167 -109.0167 227° Southwest  Level FlightAware Approximate
03:09PM 44.5202 -109.0238 227° Southwest  Level Estimated
03:10PM 44.5167 -109.0167 227° Southwest  Level FlightAware Approximate
03:11PM 44.5202 -109.0238 227° Southwest  Level Estimated